createdAt,value
2023-03-13T00:00:29.457Z,21.07
2023-03-13T00:02:56.520Z,17.33
2023-03-13T00:05:23.591Z,16.67
2023-03-13T00:07:50.764Z,24.97
2023-03-13T00:10:17.892Z,15.53
2023-03-13T00:12:44.937Z,22.23
2023-03-13T00:15:12.308Z,17.80
2023-03-13T00:17:39.623Z,22.77
2023-03-13T00:20:07.311Z,25.83
2023-03-13T00:22:34.364Z,15.57
2023-03-13T00:25:01.664Z,26.17
2023-03-13T00:27:28.704Z,15.20
2023-03-13T00:29:55.761Z,16.33
2023-03-13T00:32:22.885Z,13.53
2023-03-13T00:34:49.990Z,16.73
2023-03-13T00:37:17.036Z,16.43
2023-03-13T00:39:44.993Z,24.83
2023-03-13T00:42:12.033Z,19.23
2023-03-13T00:44:39.126Z,11.77
2023-03-13T00:47:07.028Z,18.17
2023-03-13T00:49:34.206Z,18.77
2023-03-13T00:52:01.287Z,15.40
2023-03-13T00:54:28.321Z,14.63
2023-03-13T00:56:55.582Z,19.80
2023-03-13T00:59:22.652Z,21.97
2023-03-13T01:01:50.046Z,19.70
2023-03-13T01:04:17.130Z,18.47
2023-03-13T01:06:44.244Z,16.17
2023-03-13T01:09:13.537Z,19.17
2023-03-13T01:11:41.340Z,12.43
2023-03-13T01:14:10.969Z,24.90
2023-03-13T01:16:38.630Z,21.43
2023-03-13T01:19:07.789Z,16.80
2023-03-13T01:21:37.274Z,20.87
2023-03-13T01:24:04.394Z,16.67
2023-03-13T01:26:31.545Z,20.47
2023-03-13T01:28:58.653Z,24.77
2023-03-13T01:31:27.620Z,19.23
2023-03-13T01:33:56.482Z,25.20
2023-03-13T01:36:24.102Z,24.53
2023-03-13T01:38:52.205Z,17.27
2023-03-13T01:41:20.067Z,23.37
2023-03-13T01:43:47.682Z,23.70
2023-03-13T01:46:18.788Z,19.43
2023-03-13T01:48:49.998Z,19.93
2023-03-13T01:51:28.252Z,19.43
2023-03-13T01:53:58.099Z,26.67
2023-03-13T01:56:45.436Z,27.13
2023-03-13T01:59:15.001Z,17.13
2023-03-13T02:01:43.242Z,18.20
2023-03-13T02:04:10.624Z,17.97
2023-03-13T02:06:40.029Z,24.47
2023-03-13T02:09:10.585Z,24.50
2023-03-13T02:11:46.419Z,20.13
2023-03-13T02:14:13.748Z,26.00
2023-03-13T02:16:41.743Z,20.47
2023-03-13T02:19:17.486Z,14.20
2023-03-13T02:21:49.700Z,18.97
2023-03-13T02:24:25.995Z,22.17
2023-03-13T02:26:53.053Z,18.87
2023-03-13T02:29:20.100Z,18.23
2023-03-13T02:31:48.757Z,24.30
2023-03-13T02:34:18.392Z,24.57
2023-03-13T02:36:45.970Z,16.33
2023-03-13T02:39:15.158Z,17.53
2023-03-13T02:41:42.804Z,15.07
2023-03-13T02:44:09.819Z,19.83
2023-03-13T02:46:50.423Z,16.43
2023-03-13T02:49:21.031Z,19.97
2023-03-13T02:51:48.299Z,19.97
2023-03-13T02:54:27.300Z,17.83
2023-03-13T02:56:56.497Z,15.73
2023-03-13T02:59:24.123Z,27.83
2023-03-13T03:01:54.139Z,17.40
2023-03-13T03:04:24.962Z,23.63
2023-03-13T03:06:52.386Z,16.13
2023-03-13T03:09:20.125Z,20.80
2023-03-13T03:11:47.181Z,19.30
2023-03-13T03:14:14.413Z,20.10
2023-03-13T03:16:41.529Z,23.50
2023-03-13T03:19:08.853Z,18.83
2023-03-13T03:21:35.981Z,15.83
2023-03-13T03:24:03.006Z,16.97
2023-03-13T03:26:30.249Z,16.20
2023-03-13T03:28:57.310Z,20.47
2023-03-13T03:31:24.536Z,18.87
2023-03-13T03:33:51.717Z,12.60
2023-03-13T03:36:20.869Z,19.93
2023-03-13T03:38:47.988Z,13.37
2023-03-13T03:41:15.561Z,16.20
2023-03-13T03:43:42.892Z,16.00
2023-03-13T03:46:09.996Z,17.87
2023-03-13T03:48:37.711Z,16.10
2023-03-13T03:51:05.281Z,19.90
2023-03-13T03:53:32.487Z,20.53
2023-03-13T03:55:59.931Z,18.23
2023-03-13T03:58:27.201Z,14.17
2023-03-13T04:00:56.978Z,19.13
2023-03-13T04:03:24.095Z,16.30
2023-03-13T04:05:51.223Z,15.97
2023-03-13T04:08:18.334Z,14.20
2023-03-13T04:10:45.382Z,15.00
2023-03-13T04:13:12.651Z,13.20
2023-03-13T04:15:40.108Z,17.13
2023-03-13T04:18:07.351Z,15.33
2023-03-13T04:20:34.384Z,22.77
2023-03-13T04:23:01.545Z,15.90
2023-03-13T04:25:28.609Z,17.50
2023-03-13T04:27:55.648Z,15.70
2023-03-13T04:30:22.775Z,15.57
2023-03-13T04:32:51.097Z,12.20
2023-03-13T04:35:18.274Z,10.90
2023-03-13T04:37:45.427Z,14.33
2023-03-13T04:40:13.729Z,11.70
2023-03-13T04:42:41.920Z,13.00
2023-03-13T04:45:11.463Z,12.60
2023-03-13T04:47:38.562Z,11.27
2023-03-13T04:50:05.825Z,10.57
2023-03-13T04:52:32.900Z,12.67
2023-03-13T04:54:59.935Z,12.67
2023-03-13T04:57:27.002Z,12.00
2023-03-13T04:59:54.039Z,12.73
2023-03-13T05:02:21.157Z,12.37
2023-03-13T05:04:48.985Z,12.60
2023-03-13T05:07:17.194Z,13.87
2023-03-13T05:09:44.208Z,14.87
2023-03-13T05:12:11.319Z,14.13
2023-03-13T05:14:38.376Z,13.63
2023-03-13T05:17:05.447Z,12.33
2023-03-13T05:19:32.474Z,14.37
2023-03-13T05:21:59.513Z,15.10
2023-03-13T05:24:26.622Z,12.60
2023-03-13T05:26:53.668Z,14.03
2023-03-13T05:29:20.750Z,12.60
2023-03-13T05:31:48.222Z,15.03
2023-03-13T05:34:15.262Z,20.80
2023-03-13T05:36:42.585Z,13.80
2023-03-13T05:39:09.649Z,14.97
2023-03-13T05:41:36.720Z,15.07
2023-03-13T05:44:03.799Z,16.53
2023-03-13T05:46:31.135Z,16.90
2023-03-13T05:48:58.247Z,16.83
2023-03-13T05:51:25.454Z,16.73
2023-03-13T05:53:52.508Z,20.57
2023-03-13T05:56:19.589Z,20.60
2023-03-13T05:58:46.633Z,20.70
2023-03-13T06:01:14.213Z,22.80
2023-03-13T06:03:41.374Z,22.87
2023-03-13T06:06:08.485Z,23.00
2023-03-13T06:08:35.575Z,23.87
2023-03-13T06:11:03.590Z,24.33
2023-03-13T06:13:30.751Z,26.13
2023-03-13T06:15:58.948Z,25.73
2023-03-13T06:18:27.321Z,25.13
2023-03-13T06:21:00.974Z,25.13
2023-03-13T06:23:28.488Z,27.63
2023-03-13T06:25:55.773Z,28.00
2023-03-13T06:28:23.042Z,28.40
2023-03-13T06:30:50.126Z,28.87
2023-03-13T06:33:17.369Z,25.87
2023-03-13T06:35:55.868Z,27.23
2023-03-13T06:38:23.912Z,31.10
2023-03-13T06:40:51.020Z,30.10
2023-03-13T06:43:19.652Z,28.03
2023-03-13T06:45:46.901Z,25.37
2023-03-13T06:48:14.066Z,24.10
2023-03-13T06:50:41.638Z,21.73
2023-03-13T06:53:08.771Z,22.53
2023-03-13T06:55:35.792Z,21.37
2023-03-13T06:58:02.807Z,20.60
2023-03-13T07:00:29.913Z,19.67
2023-03-13T07:02:57.007Z,19.30
2023-03-13T07:05:24.061Z,21.60
2023-03-13T07:07:51.077Z,19.50
2023-03-13T07:10:18.120Z,16.83
2023-03-13T07:12:45.258Z,17.70
2023-03-13T07:15:12.314Z,17.47
2023-03-13T07:17:39.621Z,22.87
2023-03-13T07:20:10.113Z,15.00
2023-03-13T07:22:38.034Z,14.53
2023-03-13T07:25:05.492Z,16.77
2023-03-13T07:27:32.726Z,14.20
2023-03-13T07:29:59.827Z,13.10
2023-03-13T07:32:26.976Z,14.47
2023-03-13T07:34:54.246Z,12.73
2023-03-13T07:37:21.285Z,12.47
2023-03-13T07:39:48.366Z,11.33
2023-03-13T07:42:15.420Z,12.97
2023-03-13T07:44:42.478Z,10.43
2023-03-13T07:47:09.532Z,11.37
2023-03-13T07:49:41.219Z,10.17
2023-03-13T07:52:08.431Z,9.70
2023-03-13T07:54:35.488Z,11.33
2023-03-13T07:57:03.374Z,11.20
2023-03-13T07:59:30.762Z,11.27
2023-03-13T08:01:57.937Z,8.80
2023-03-13T08:04:25.056Z,9.00
2023-03-13T08:06:52.353Z,10.00
2023-03-13T08:09:19.383Z,8.87
2023-03-13T08:11:46.734Z,7.17
2023-03-13T08:14:14.297Z,10.17
2023-03-13T08:16:41.560Z,7.77
2023-03-13T08:19:08.632Z,7.20
2023-03-13T08:21:37.078Z,8.13
2023-03-13T08:24:07.003Z,9.93
2023-03-13T08:26:35.144Z,8.93
2023-03-13T08:29:03.473Z,9.00
2023-03-13T08:31:34.841Z,9.17
2023-03-13T08:34:02.202Z,26.47
2023-03-13T08:36:34.205Z,6.30
2023-03-13T08:39:02.918Z,7.70
2023-03-13T08:41:32.113Z,5.80
2023-03-13T08:43:59.330Z,5.33
2023-03-13T08:46:26.746Z,6.73
2023-03-13T08:48:54.955Z,6.10
2023-03-13T08:51:23.727Z,10.47
2023-03-13T08:53:51.325Z,7.30
2023-03-13T08:56:19.520Z,5.53
2023-03-13T08:58:53.514Z,8.90
2023-03-13T09:01:21.406Z,6.43
2023-03-13T09:03:48.527Z,7.77
2023-03-13T09:06:15.601Z,10.03
2023-03-13T09:08:42.961Z,6.60
2023-03-13T09:11:11.201Z,7.20
2023-03-13T09:13:39.574Z,9.97
2023-03-13T09:16:07.930Z,10.33
2023-03-13T09:18:35.457Z,6.27
2023-03-13T09:21:03.211Z,6.47
2023-03-13T09:23:30.274Z,5.10
2023-03-13T09:25:58.090Z,7.50
2023-03-13T09:28:26.670Z,5.40
2023-03-13T09:30:54.731Z,4.00
2023-03-13T09:33:26.035Z,5.47
2023-03-13T09:35:53.173Z,4.70
2023-03-13T09:38:22.321Z,8.10
2023-03-13T09:41:04.981Z,4.97
2023-03-13T09:43:46.632Z,5.43
2023-03-13T09:46:24.152Z,6.57
2023-03-13T09:48:55.923Z,6.97
2023-03-13T09:51:27.341Z,6.00
2023-03-13T09:53:58.403Z,8.03
2023-03-13T09:56:26.362Z,7.20
2023-03-13T09:58:59.620Z,6.30
2023-03-13T10:01:31.336Z,4.80
2023-03-13T10:04:07.764Z,8.40
2023-03-13T10:06:37.008Z,7.00
2023-03-13T10:09:04.154Z,6.23
2023-03-13T10:11:38.984Z,5.93
2023-03-13T10:14:22.002Z,6.23
2023-03-13T10:16:55.193Z,6.53
2023-03-13T10:19:27.488Z,8.63
2023-03-13T10:21:56.486Z,4.03
2023-03-13T10:24:23.483Z,6.93
2023-03-13T10:26:50.502Z,4.67
2023-03-13T10:29:23.050Z,6.37
2023-03-13T10:31:57.012Z,6.47
2023-03-13T10:34:25.045Z,3.67
2023-03-13T10:36:55.990Z,3.27
2023-03-13T10:39:24.187Z,7.83
2023-03-13T10:41:52.558Z,4.37
2023-03-13T10:44:20.735Z,5.00
2023-03-13T10:46:49.214Z,4.93
2023-03-13T10:49:20.749Z,4.90
2023-03-13T10:51:50.580Z,4.37
2023-03-13T10:54:17.695Z,5.20
2023-03-13T10:56:44.939Z,4.33
2023-03-13T10:59:25.509Z,6.87
2023-03-13T11:01:53.413Z,4.00
2023-03-13T11:04:32.769Z,20.17
2023-03-13T11:07:04.291Z,4.40
2023-03-13T11:09:32.222Z,4.50
2023-03-13T11:12:03.802Z,5.33
2023-03-13T11:14:30.966Z,3.80
2023-03-13T11:17:10.588Z,3.70
2023-03-13T11:19:46.805Z,5.37
2023-03-13T11:22:18.539Z,4.07
2023-03-13T11:24:50.398Z,7.47
2023-03-13T11:27:20.769Z,4.70
2023-03-13T11:29:58.472Z,4.07
2023-03-13T11:32:39.794Z,5.47
2023-03-13T11:35:27.165Z,3.80
2023-03-13T11:37:56.734Z,3.53
2023-03-13T11:40:35.059Z,3.97
2023-03-13T11:43:21.743Z,4.13
2023-03-13T11:45:52.297Z,4.47
2023-03-13T11:48:38.506Z,5.83
2023-03-13T11:51:25.416Z,3.33
2023-03-13T11:54:11.331Z,7.40
2023-03-13T11:56:43.897Z,4.77
2023-03-13T11:59:29.150Z,8.97
2023-03-13T12:02:16.656Z,5.23
2023-03-13T12:04:49.707Z,3.80
2023-03-13T12:07:22.076Z,6.07
2023-03-13T12:09:58.293Z,4.83
2023-03-13T12:12:31.364Z,2.67
2023-03-13T12:15:08.379Z,40.70
2023-03-13T12:17:36.738Z,5.90
2023-03-13T12:20:09.771Z,52.50
2023-03-13T12:22:57.057Z,3.80
2023-03-13T12:25:45.529Z,4.63
2023-03-13T12:28:24.746Z,3.80
2023-03-13T12:31:00.020Z,3.30
2023-03-13T12:33:29.338Z,2.77
2023-03-13T12:36:05.011Z,3.97
2023-03-13T12:38:35.411Z,4.13
2023-03-13T12:41:11.789Z,4.90
2023-03-13T12:43:40.565Z,5.00
2023-03-13T12:46:15.574Z,9.63
2023-03-13T12:48:45.622Z,2.83
2023-03-13T12:51:31.173Z,6.27
2023-03-13T12:54:15.512Z,16.83
2023-03-13T12:56:56.270Z,5.00
2023-03-13T12:59:25.466Z,7.07
2023-03-13T13:01:54.805Z,2.03
2023-03-13T13:04:26.931Z,1.97
2023-03-13T13:07:00.519Z,2.90
2023-03-13T13:09:28.989Z,3.47
2023-03-13T13:12:01.498Z,3.63
2023-03-13T13:14:28.509Z,3.37
2023-03-13T13:17:16.266Z,9.80
2023-03-13T13:19:43.482Z,3.47
2023-03-13T13:22:29.194Z,1.90
2023-03-13T13:25:00.056Z,6.30
2023-03-13T13:27:32.948Z,3.00
2023-03-13T13:30:01.265Z,1.20
2023-03-13T13:32:39.137Z,4.03
2023-03-13T13:35:25.361Z,5.47
2023-03-13T13:37:52.523Z,5.27
2023-03-13T13:40:19.709Z,2.53
2023-03-13T13:43:00.299Z,2.53
2023-03-13T13:45:30.631Z,4.73
2023-03-13T13:48:16.313Z,1.40
2023-03-13T13:51:14.040Z,2.33
2023-03-13T13:53:47.201Z,4.70
2023-03-13T13:56:29.418Z,3.00
2023-03-13T13:59:01.450Z,1.97
2023-03-13T14:01:28.557Z,3.17
2023-03-13T14:04:11.393Z,3.17
2023-03-13T14:06:39.252Z,2.17
2023-03-13T14:09:15.672Z,2.93
2023-03-13T14:11:42.733Z,2.33
2023-03-13T14:14:20.041Z,1.63
2023-03-13T14:16:57.194Z,3.00
2023-03-13T14:19:31.664Z,1.27
2023-03-13T14:22:06.346Z,3.40
2023-03-13T14:24:33.442Z,1.63
2023-03-13T14:27:00.895Z,3.80
2023-03-13T14:29:28.675Z,1.33
2023-03-13T14:31:56.690Z,3.17
2023-03-13T14:34:23.889Z,4.13
2023-03-13T14:36:52.077Z,2.90
2023-03-13T14:39:31.366Z,10.07
2023-03-13T14:42:04.295Z,4.67
2023-03-13T14:44:34.705Z,4.17
2023-03-13T14:47:07.222Z,3.53
2023-03-13T14:49:34.915Z,2.93
2023-03-13T14:52:03.515Z,2.87
2023-03-13T14:54:32.110Z,3.07
2023-03-13T14:57:11.169Z,3.63
2023-03-13T14:59:38.233Z,5.27
2023-03-13T15:02:15.099Z,1.60
2023-03-13T15:04:52.169Z,2.10
2023-03-13T15:07:19.393Z,1.33
2023-03-13T15:09:47.298Z,3.13
2023-03-13T15:12:15.057Z,2.53
2023-03-13T15:14:45.061Z,2.73
2023-03-13T15:17:15.214Z,2.00
2023-03-13T15:19:42.807Z,2.23
2023-03-13T15:22:14.968Z,3.33
2023-03-13T15:24:45.269Z,2.13
2023-03-13T15:27:16.418Z,1.47
2023-03-13T15:29:43.772Z,1.67
2023-03-13T15:32:15.419Z,3.03
2023-03-13T15:34:42.533Z,2.67
2023-03-13T15:37:13.153Z,2.30
2023-03-13T15:39:40.326Z,2.80
2023-03-13T15:42:07.394Z,2.53
2023-03-13T15:44:34.617Z,4.63
2023-03-13T15:47:01.796Z,11.17
2023-03-13T15:49:28.851Z,4.87
2023-03-13T15:51:57.822Z,4.17
2023-03-13T15:54:26.276Z,1.83
2023-03-13T15:56:53.382Z,2.23
2023-03-13T15:59:20.431Z,2.90
2023-03-13T16:01:48.422Z,1.83
2023-03-13T16:04:15.573Z,1.67
2023-03-13T16:06:42.653Z,4.30
2023-03-13T16:09:11.982Z,1.80
2023-03-13T16:11:39.114Z,4.37
2023-03-13T16:14:06.211Z,3.27
2023-03-13T16:16:37.553Z,3.40
2023-03-13T16:19:04.978Z,2.70
2023-03-13T16:21:34.356Z,3.03
2023-03-13T16:24:01.533Z,2.40
2023-03-13T16:26:29.982Z,4.37
2023-03-13T16:28:57.813Z,1.30
2023-03-13T16:31:25.017Z,4.33
2023-03-13T16:33:54.097Z,1.63
2023-03-13T16:36:22.493Z,1.80
2023-03-13T16:38:49.753Z,2.33
2023-03-13T16:41:21.321Z,1.97
2023-03-13T16:43:48.378Z,6.93
2023-03-13T16:46:19.845Z,3.93
2023-03-13T16:48:47.513Z,3.07
2023-03-13T16:51:18.942Z,3.50
2023-03-13T16:53:46.816Z,4.57
2023-03-13T16:56:30.464Z,1.97
2023-03-13T16:58:58.380Z,1.70
2023-03-13T17:01:26.030Z,3.43
2023-03-13T17:03:53.598Z,3.07
2023-03-13T17:06:22.243Z,5.47
2023-03-13T17:08:49.337Z,2.20
2023-03-13T17:11:18.541Z,2.57
2023-03-13T17:13:46.644Z,3.00
2023-03-13T17:16:18.652Z,4.97
2023-03-13T17:18:46.880Z,3.20
2023-03-13T17:21:15.533Z,7.37
2023-03-13T17:23:42.638Z,2.20
2023-03-13T17:26:16.989Z,5.83
2023-03-13T17:28:44.937Z,4.23
2023-03-13T17:31:12.572Z,3.70
2023-03-13T17:33:40.788Z,4.23
2023-03-13T17:36:30.096Z,4.07
2023-03-13T17:38:58.732Z,5.47
2023-03-13T17:41:27.084Z,3.63
2023-03-13T17:43:54.657Z,5.27
2023-03-13T17:46:23.215Z,6.80
2023-03-13T17:48:52.284Z,2.63
2023-03-13T17:51:21.103Z,7.17
2023-03-13T17:53:48.647Z,3.03
2023-03-13T17:56:22.842Z,3.17
2023-03-13T17:58:50.878Z,3.10
2023-03-13T18:01:19.638Z,3.17
2023-03-13T18:03:46.840Z,3.10
2023-03-13T18:06:27.113Z,3.83
2023-03-13T18:08:56.172Z,2.97
2023-03-13T18:11:24.080Z,3.73
2023-03-13T18:13:51.520Z,3.00
2023-03-13T18:16:20.314Z,5.63
2023-03-13T18:18:47.400Z,2.93
2023-03-13T18:21:14.565Z,3.80
2023-03-13T18:23:41.659Z,3.00
2023-03-13T18:26:17.540Z,3.30
2023-03-13T18:28:44.561Z,4.70
2023-03-13T18:31:11.800Z,7.17
2023-03-13T18:33:40.990Z,7.50
2023-03-13T18:36:19.257Z,4.60
2023-03-13T18:38:47.343Z,5.63
2023-03-13T18:41:15.486Z,6.97
2023-03-13T18:43:43.067Z,3.40
2023-03-13T18:46:14.663Z,3.77
2023-03-13T18:48:41.784Z,3.80
2023-03-13T18:51:10.638Z,3.20
2023-03-13T18:53:37.731Z,3.77
2023-03-13T18:56:09.708Z,5.43
2023-03-13T18:58:36.742Z,2.83
2023-03-13T19:01:03.902Z,5.13
2023-03-13T19:03:30.950Z,3.47
2023-03-13T19:06:00.194Z,6.20
2023-03-13T19:08:27.245Z,4.90
2023-03-13T19:10:54.334Z,3.67
2023-03-13T19:13:21.410Z,6.57
2023-03-13T19:15:48.568Z,5.43
2023-03-13T19:18:15.629Z,5.30
2023-03-13T19:20:42.672Z,5.33
2023-03-13T19:23:10.265Z,6.70
2023-03-13T19:25:37.326Z,3.93
2023-03-13T19:28:06.209Z,3.80
2023-03-13T19:30:34.633Z,4.90
2023-03-13T19:33:01.793Z,5.47
2023-03-13T19:35:29.055Z,5.03
2023-03-13T19:37:56.138Z,6.57
2023-03-13T19:40:25.415Z,5.33
2023-03-13T19:42:52.568Z,5.47
2023-03-13T19:45:21.724Z,4.23
2023-03-13T19:47:49.264Z,10.00
2023-03-13T19:50:21.072Z,7.47
2023-03-13T19:52:48.214Z,5.67
2023-03-13T19:55:15.409Z,7.00
2023-03-13T19:57:42.582Z,5.73
2023-03-13T20:00:16.454Z,4.97
2023-03-13T20:02:43.571Z,6.90
2023-03-13T20:05:11.053Z,5.50
2023-03-13T20:07:38.568Z,6.00
2023-03-13T20:10:05.997Z,7.07
2023-03-13T20:12:34.123Z,3.87
2023-03-13T20:15:01.218Z,8.97
2023-03-13T20:17:28.343Z,5.40
2023-03-13T20:19:55.394Z,7.30
2023-03-13T20:22:22.524Z,5.33
2023-03-13T20:24:49.691Z,6.93
2023-03-13T20:27:16.876Z,5.67
2023-03-13T20:29:44.173Z,4.90
2023-03-13T20:32:13.203Z,5.17
2023-03-13T20:34:40.304Z,5.27
2023-03-13T20:37:09.050Z,4.83
2023-03-13T20:39:36.366Z,7.40
2023-03-13T20:42:03.516Z,7.47
2023-03-13T20:44:33.356Z,4.97
2023-03-13T20:47:00.793Z,8.77
2023-03-13T20:49:31.765Z,7.43
2023-03-13T20:51:59.061Z,4.40
2023-03-13T20:54:26.267Z,6.33
2023-03-13T20:56:53.633Z,5.23
2023-03-13T20:59:20.726Z,8.40
2023-03-13T21:01:49.690Z,9.60
2023-03-13T21:04:16.752Z,8.63
2023-03-13T21:06:43.835Z,6.87
2023-03-13T21:09:10.922Z,9.07
2023-03-13T21:11:37.992Z,6.67
2023-03-13T21:14:05.038Z,6.47
2023-03-13T21:16:32.135Z,11.03
2023-03-13T21:18:59.264Z,5.87
2023-03-13T21:21:26.309Z,6.77
2023-03-13T21:23:53.475Z,5.43
2023-03-13T21:26:20.641Z,3.83
2023-03-13T21:28:47.987Z,6.13
2023-03-13T21:31:16.515Z,4.30
2023-03-13T21:33:46.923Z,5.57
2023-03-13T21:36:15.125Z,8.77
2023-03-13T21:38:42.192Z,7.40
2023-03-13T21:41:10.284Z,7.87
2023-03-13T21:43:37.562Z,5.10
2023-03-13T21:46:04.736Z,6.63
2023-03-13T21:48:31.822Z,5.77
2023-03-13T21:50:58.902Z,5.97
2023-03-13T21:53:25.973Z,5.20
2023-03-13T21:55:53.115Z,6.40
2023-03-13T21:58:20.213Z,7.80
2023-03-13T22:00:47.269Z,7.57
2023-03-13T22:03:15.600Z,9.17
2023-03-13T22:05:43.643Z,5.83
2023-03-13T22:08:10.825Z,5.17
2023-03-13T22:10:38.240Z,9.57
2023-03-13T22:13:06.286Z,7.97
2023-03-13T22:15:33.388Z,9.07
2023-03-13T22:18:00.553Z,8.40
2023-03-13T22:20:28.004Z,5.03
2023-03-13T22:22:55.099Z,7.87
2023-03-13T22:25:22.249Z,6.70
2023-03-13T22:27:49.309Z,5.27
2023-03-13T22:30:16.555Z,5.87
2023-03-13T22:32:43.741Z,4.53
2023-03-13T22:35:10.970Z,4.77
2023-03-13T22:37:38.259Z,9.00
2023-03-13T22:40:06.080Z,6.93
2023-03-13T22:42:33.146Z,8.73
2023-03-13T22:45:00.251Z,4.70
2023-03-13T22:47:27.425Z,6.43
2023-03-13T22:49:54.825Z,9.33
2023-03-13T22:52:28.722Z,6.53
2023-03-13T22:54:55.861Z,11.70
2023-03-13T22:57:23.068Z,6.87
2023-03-13T22:59:50.145Z,8.77
2023-03-13T23:02:17.257Z,7.87
2023-03-13T23:04:44.367Z,7.87
2023-03-13T23:07:11.646Z,8.93
2023-03-13T23:09:38.979Z,10.27
2023-03-13T23:12:07.565Z,6.07
2023-03-13T23:14:34.653Z,7.07
2023-03-13T23:17:01.738Z,8.60
2023-03-13T23:19:28.796Z,5.87
2023-03-13T23:21:55.881Z,9.83
2023-03-13T23:24:22.957Z,6.70
2023-03-13T23:26:49.983Z,6.47
2023-03-13T23:29:17.080Z,5.37
2023-03-13T23:31:44.104Z,4.93
2023-03-13T23:34:11.175Z,6.37
2023-03-13T23:36:38.203Z,6.33
2023-03-13T23:39:05.337Z,5.30
2023-03-13T23:41:32.476Z,7.67
2023-03-13T23:44:00.870Z,5.17
2023-03-13T23:46:27.997Z,8.37
2023-03-13T23:48:55.648Z,5.47
2023-03-13T23:51:23.449Z,7.27
2023-03-13T23:53:51.160Z,10.00
2023-03-13T23:56:18.381Z,5.70
2023-03-13T23:58:45.462Z,7.37
